createdAt,value
2019-03-29T00:00:48.307Z,-0.20
2019-03-29T00:03:19.067Z,0.00
2019-03-29T00:05:49.834Z,0.00
2019-03-29T00:08:20.653Z,-0.10
2019-03-29T00:10:51.367Z,0.10
2019-03-29T00:13:22.392Z,0.00
2019-03-29T00:15:54.027Z,0.20
2019-03-29T00:18:24.766Z,0.20
2019-03-29T00:20:55.539Z,0.00
2019-03-29T00:23:26.350Z,-0.20
2019-03-29T00:25:57.076Z,-0.20
2019-03-29T00:28:27.867Z,0.10
2019-03-29T00:30:58.600Z,0.00
2019-03-29T00:33:29.347Z,-0.20
2019-03-29T00:36:00.172Z,0.10
2019-03-29T00:38:30.907Z,0.00
2019-03-29T00:41:01.643Z,0.10
2019-03-29T00:43:32.356Z,0.00
2019-03-29T00:46:03.128Z,-0.10
2019-03-29T00:48:35.627Z,-0.20
2019-03-29T00:51:06.238Z,0.00
2019-03-29T00:53:36.966Z,0.00
2019-03-29T00:56:08.178Z,0.20
2019-03-29T00:58:38.897Z,0.30
2019-03-29T01:01:09.648Z,0.50
2019-03-29T01:03:40.368Z,0.30
2019-03-29T01:06:11.102Z,0.40
2019-03-29T01:08:42.064Z,0.50
2019-03-29T01:11:12.805Z,0.70
2019-03-29T01:13:43.523Z,0.70
2019-03-29T01:16:14.279Z,0.70
2019-03-29T01:18:44.988Z,0.90
2019-03-29T01:21:15.747Z,0.90
2019-03-29T01:23:46.455Z,0.80
2019-03-29T01:26:17.199Z,1.00
2019-03-29T01:28:47.904Z,0.90
2019-03-29T01:31:18.675Z,1.10
2019-03-29T01:33:49.401Z,0.90
2019-03-29T01:36:20.107Z,1.10
2019-03-29T01:38:51.191Z,0.80
2019-03-29T01:41:21.945Z,0.80
2019-03-29T01:43:52.655Z,1.10
2019-03-29T01:46:23.461Z,1.00
2019-03-29T01:48:54.227Z,0.90
2019-03-29T01:51:25.062Z,0.90
2019-03-29T01:53:55.781Z,1.00
2019-03-29T01:56:26.505Z,1.10
2019-03-29T01:58:57.254Z,0.90
2019-03-29T02:01:28.410Z,0.80
2019-03-29T02:04:00.134Z,1.00
2019-03-29T02:06:30.868Z,0.90
2019-03-29T02:09:01.591Z,1.00
2019-03-29T02:11:32.363Z,0.80
2019-03-29T02:14:03.087Z,1.00
2019-03-29T02:16:33.798Z,0.80
2019-03-29T02:19:05.270Z,1.00
2019-03-29T02:21:36.803Z,1.00
2019-03-29T02:24:07.528Z,1.10
2019-03-29T02:26:38.291Z,1.00
2019-03-29T02:29:09.048Z,1.20
2019-03-29T02:31:42.065Z,1.40
2019-03-29T02:34:12.116Z,1.30
2019-03-29T02:36:42.965Z,1.20
2019-03-29T02:39:13.714Z,1.40
2019-03-29T02:41:44.502Z,1.40
2019-03-29T02:44:16.398Z,1.50
2019-03-29T02:46:47.119Z,1.60
2019-03-29T02:49:17.870Z,1.30
2019-03-29T02:51:48.613Z,1.50
2019-03-29T02:54:19.356Z,1.40
2019-03-29T02:56:50.068Z,1.40
2019-03-29T02:59:20.802Z,1.60
2019-03-29T03:01:51.511Z,1.40
2019-03-29T03:04:22.287Z,1.50
2019-03-29T03:06:53.020Z,1.60
2019-03-29T03:09:23.756Z,1.50
2019-03-29T03:11:54.480Z,1.60
2019-03-29T03:14:25.195Z,1.80
2019-03-29T03:16:55.948Z,1.80
2019-03-29T03:19:26.677Z,2.10
2019-03-29T03:21:57.387Z,2.20
2019-03-29T03:24:28.126Z,2.30
2019-03-29T03:26:58.833Z,2.50
2019-03-29T03:29:29.580Z,2.80
2019-03-29T03:32:00.306Z,2.60
2019-03-29T03:34:31.028Z,2.80
2019-03-29T03:37:01.780Z,3.10
2019-03-29T03:39:32.782Z,3.40
2019-03-29T03:42:03.656Z,3.30
2019-03-29T03:44:34.389Z,3.40
2019-03-29T03:47:05.101Z,3.30
2019-03-29T03:49:35.837Z,3.20
2019-03-29T03:52:06.630Z,3.40
2019-03-29T03:54:37.962Z,3.30
2019-03-29T03:57:08.710Z,3.50
2019-03-29T03:59:40.221Z,3.50
2019-03-29T04:02:10.960Z,3.50
2019-03-29T04:04:41.667Z,3.50
2019-03-29T04:07:12.456Z,3.70
2019-03-29T04:09:50.150Z,3.60
2019-03-29T04:12:15.568Z,3.70
2019-03-29T04:14:46.290Z,3.80
2019-03-29T04:17:17.027Z,4.00
2019-03-29T04:19:47.990Z,4.20
2019-03-29T04:22:18.719Z,3.90
2019-03-29T04:24:49.438Z,3.90
2019-03-29T04:27:20.187Z,3.90
2019-03-29T04:29:50.920Z,4.10
2019-03-29T04:32:21.658Z,4.20
2019-03-29T04:34:52.395Z,4.50
2019-03-29T04:37:23.101Z,4.40
2019-03-29T04:40:06.495Z,4.40
2019-03-29T04:42:26.208Z,4.50
2019-03-29T04:44:59.891Z,4.40
2019-03-29T04:47:29.358Z,4.50
2019-03-29T04:50:00.088Z,4.50
2019-03-29T04:52:30.819Z,4.70
2019-03-29T04:55:01.630Z,4.60
2019-03-29T04:57:32.339Z,4.70
2019-03-29T05:00:03.089Z,4.90
2019-03-29T05:02:33.832Z,5.10
2019-03-29T05:05:04.567Z,4.90
2019-03-29T05:07:36.998Z,4.90
2019-03-29T05:10:20.241Z,5.20
2019-03-29T05:12:40.511Z,5.20
2019-03-29T05:15:11.234Z,5.20
2019-03-29T05:17:41.983Z,5.30
2019-03-29T05:20:12.687Z,5.60
2019-03-29T05:22:43.507Z,5.50
2019-03-29T05:25:14.217Z,5.50
2019-03-29T05:27:44.960Z,5.50
2019-03-29T05:30:15.798Z,5.60
2019-03-29T05:32:46.516Z,5.70
2019-03-29T05:35:17.255Z,5.80
2019-03-29T05:37:47.964Z,5.80
2019-03-29T05:40:18.717Z,6.00
2019-03-29T05:42:49.479Z,5.90
2019-03-29T05:45:20.215Z,6.30
2019-03-29T05:47:50.956Z,6.30
2019-03-29T05:50:21.668Z,6.20
2019-03-29T05:52:52.451Z,5.90
2019-03-29T05:55:32.427Z,6.20
2019-03-29T05:57:55.559Z,6.30
2019-03-29T06:00:26.631Z,6.30
2019-03-29T06:02:57.383Z,6.30
2019-03-29T06:05:28.143Z,6.40
2019-03-29T06:07:58.871Z,6.60
2019-03-29T06:10:29.603Z,6.50
2019-03-29T06:13:00.347Z,6.20
2019-03-29T06:15:31.164Z,6.70
2019-03-29T06:18:01.851Z,6.60
2019-03-29T06:20:32.607Z,6.70
2019-03-29T06:23:03.323Z,7.00
2019-03-29T06:25:34.075Z,7.30
2019-03-29T06:28:04.808Z,7.00
2019-03-29T06:30:35.558Z,7.10
2019-03-29T06:33:06.315Z,7.20
2019-03-29T06:35:39.730Z,7.40
2019-03-29T06:38:11.475Z,7.40
2019-03-29T06:40:42.193Z,7.30
2019-03-29T06:43:12.927Z,7.60
2019-03-29T06:45:48.089Z,7.60
2019-03-29T06:48:16.187Z,7.80
2019-03-29T06:50:46.978Z,7.80
2019-03-29T06:53:17.676Z,8.00
2019-03-29T06:55:48.480Z,8.10
2019-03-29T06:58:19.215Z,8.20
2019-03-29T07:00:49.965Z,8.30
2019-03-29T07:03:20.746Z,8.40
2019-03-29T07:05:51.467Z,8.40
2019-03-29T07:08:22.215Z,8.40
2019-03-29T07:10:52.955Z,8.60
2019-03-29T07:13:23.723Z,8.90
2019-03-29T07:15:54.455Z,9.00
2019-03-29T07:18:25.155Z,9.00
2019-03-29T07:20:55.903Z,9.10
2019-03-29T07:23:26.607Z,9.20
2019-03-29T07:25:57.315Z,9.30
2019-03-29T07:28:28.140Z,9.30
2019-03-29T07:30:58.956Z,9.30
2019-03-29T07:33:29.848Z,9.30
2019-03-29T07:36:00.677Z,9.40
2019-03-29T07:38:31.575Z,9.30
2019-03-29T07:41:02.426Z,9.50
2019-03-29T07:43:33.299Z,9.50
2019-03-29T07:46:04.126Z,10.00
2019-03-29T07:48:34.996Z,10.00
2019-03-29T07:51:05.954Z,10.20
2019-03-29T07:53:36.802Z,10.30
2019-03-29T07:56:07.683Z,10.30
2019-03-29T07:58:38.542Z,10.40
2019-03-29T08:01:09.431Z,10.40
2019-03-29T08:03:40.418Z,10.30
2019-03-29T08:06:11.327Z,10.30
2019-03-29T08:08:52.614Z,10.20
2019-03-29T08:11:26.487Z,10.20
2019-03-29T08:13:56.114Z,10.40
2019-03-29T08:16:27.079Z,10.40
2019-03-29T08:18:58.014Z,10.70
2019-03-29T08:21:28.906Z,11.00
2019-03-29T08:23:59.779Z,11.10
2019-03-29T08:26:30.688Z,11.10
2019-03-29T08:29:01.586Z,11.20
2019-03-29T08:31:32.507Z,11.40
2019-03-29T08:34:03.437Z,11.30
2019-03-29T08:36:34.321Z,11.20
2019-03-29T08:39:09.922Z,11.60
2019-03-29T08:41:39.133Z,11.30
2019-03-29T08:44:28.663Z,11.50
2019-03-29T08:46:59.585Z,11.50
2019-03-29T08:49:30.503Z,11.50
2019-03-29T08:52:01.429Z,11.50
2019-03-29T08:54:32.301Z,11.80
2019-03-29T08:57:03.361Z,12.00
2019-03-29T08:59:34.203Z,12.20
2019-03-29T09:02:05.095Z,12.30
2019-03-29T09:04:36.019Z,12.30
2019-03-29T09:07:07.027Z,12.50
2019-03-29T09:09:38.121Z,12.60
2019-03-29T09:12:14.762Z,12.60
2019-03-29T09:14:41.575Z,12.60
2019-03-29T09:17:12.466Z,13.10
2019-03-29T09:19:43.399Z,13.00
2019-03-29T09:22:14.490Z,12.90
2019-03-29T09:24:45.392Z,13.10
2019-03-29T09:27:16.499Z,13.10
2019-03-29T09:29:47.423Z,13.30
2019-03-29T09:32:18.343Z,13.50
2019-03-29T09:34:49.258Z,13.60
2019-03-29T09:37:20.194Z,13.70
2019-03-29T09:39:51.084Z,14.10
2019-03-29T09:42:28.991Z,13.80
2019-03-29T09:44:54.593Z,13.90
2019-03-29T09:47:25.502Z,14.60
2019-03-29T09:49:56.469Z,15.10
2019-03-29T09:52:27.373Z,15.10
2019-03-29T09:54:58.246Z,15.40
2019-03-29T09:57:37.187Z,15.10
2019-03-29T10:00:01.768Z,15.30
2019-03-29T10:02:32.654Z,15.30
2019-03-29T10:05:03.572Z,15.30
2019-03-29T10:07:34.532Z,15.20
2019-03-29T10:10:05.628Z,15.30
2019-03-29T10:12:43.285Z,14.90
2019-03-29T10:15:09.103Z,15.30
2019-03-29T10:17:40.033Z,15.50
2019-03-29T10:20:11.524Z,15.20
2019-03-29T10:22:42.396Z,15.40
2019-03-29T10:25:19.569Z,15.50
2019-03-29T10:27:45.810Z,15.70
2019-03-29T10:30:23.621Z,15.90
2019-03-29T10:32:55.503Z,16.00
2019-03-29T10:35:26.506Z,16.20
2019-03-29T10:37:57.415Z,16.00
2019-03-29T10:40:28.316Z,15.80
2019-03-29T10:42:59.197Z,15.70
2019-03-29T10:45:30.246Z,15.60
2019-03-29T10:48:01.138Z,15.80
2019-03-29T10:50:32.048Z,16.10
2019-03-29T10:53:02.971Z,16.60
2019-03-29T10:55:34.035Z,16.80
2019-03-29T10:58:05.050Z,16.20
2019-03-29T11:00:40.957Z,16.40
2019-03-29T11:03:12.068Z,16.20
2019-03-29T11:05:43.090Z,16.50
2019-03-29T11:08:14.127Z,16.30
2019-03-29T11:10:45.002Z,16.60
2019-03-29T11:13:15.916Z,16.20
2019-03-29T11:15:46.791Z,16.20
2019-03-29T11:18:17.699Z,15.90
2019-03-29T11:20:48.633Z,15.80
2019-03-29T11:23:19.536Z,15.80
2019-03-29T11:25:50.509Z,16.00
2019-03-29T11:28:21.419Z,15.80
2019-03-29T11:30:52.430Z,15.50
2019-03-29T11:33:23.322Z,16.20
2019-03-29T11:35:54.219Z,16.60
2019-03-29T11:38:25.134Z,16.50
2019-03-29T11:40:56.018Z,16.70
2019-03-29T11:43:27.503Z,16.90
2019-03-29T11:45:58.458Z,16.70
2019-03-29T11:48:29.680Z,16.40
2019-03-29T11:51:00.882Z,16.60
2019-03-29T11:53:31.812Z,16.30
2019-03-29T11:56:02.715Z,15.70
2019-03-29T11:58:33.621Z,15.70
2019-03-29T12:01:05.627Z,15.80
2019-03-29T12:03:36.478Z,15.20
2019-03-29T12:06:07.514Z,15.30
2019-03-29T12:08:38.390Z,15.40
2019-03-29T12:11:09.462Z,15.40
2019-03-29T12:13:41.529Z,15.70
2019-03-29T12:16:12.688Z,15.40
2019-03-29T12:18:43.615Z,15.30
2019-03-29T12:21:14.526Z,15.00
2019-03-29T12:23:45.343Z,15.30
2019-03-29T12:26:16.216Z,15.60
2019-03-29T12:28:47.110Z,15.70
2019-03-29T12:31:18.141Z,15.80
2019-03-29T12:33:49.038Z,15.70
2019-03-29T12:36:20.023Z,15.50
2019-03-29T12:38:50.902Z,15.20
2019-03-29T12:41:21.803Z,15.20
2019-03-29T12:43:55.911Z,15.10
2019-03-29T12:46:25.184Z,15.10
2019-03-29T12:48:56.067Z,14.90
2019-03-29T12:51:27.050Z,14.60
2019-03-29T12:53:57.894Z,14.40
2019-03-29T12:56:28.836Z,14.50
2019-03-29T12:58:59.739Z,14.70
2019-03-29T13:01:39.215Z,14.70
2019-03-29T13:04:03.118Z,15.00
2019-03-29T13:06:34.010Z,15.20
2019-03-29T13:09:05.605Z,15.10
2019-03-29T13:11:39.826Z,15.00
2019-03-29T13:14:11.020Z,15.20
2019-03-29T13:16:42.024Z,15.10
2019-03-29T13:19:12.910Z,15.30
2019-03-29T13:21:43.804Z,15.80
2019-03-29T13:24:16.145Z,15.80
2019-03-29T13:26:47.399Z,15.90
2019-03-29T13:29:18.362Z,16.20
2019-03-29T13:31:49.254Z,15.90
2019-03-29T13:34:20.084Z,15.60
2019-03-29T13:36:50.974Z,15.40
2019-03-29T13:39:21.885Z,15.40
2019-03-29T13:41:52.802Z,15.10
2019-03-29T13:44:26.601Z,15.00
2019-03-29T13:46:56.210Z,15.00
2019-03-29T13:49:27.090Z,15.10
2019-03-29T13:51:58.019Z,15.30
2019-03-29T13:54:29.196Z,15.40
2019-03-29T13:57:00.308Z,15.70
2019-03-29T13:59:31.994Z,15.80
2019-03-29T14:02:03.038Z,16.50
2019-03-29T14:04:33.918Z,16.20
2019-03-29T14:07:04.878Z,16.30
2019-03-29T14:09:35.779Z,16.20
2019-03-29T14:12:06.790Z,16.00
2019-03-29T14:14:38.816Z,16.10
2019-03-29T14:17:09.830Z,15.80
2019-03-29T14:19:40.816Z,16.30
2019-03-29T14:22:11.698Z,16.30
2019-03-29T14:24:42.660Z,16.60
2019-03-29T14:27:13.539Z,17.30
2019-03-29T14:29:44.408Z,16.40
2019-03-29T14:32:15.321Z,16.20
2019-03-29T14:34:46.482Z,16.00
2019-03-29T14:37:17.360Z,16.10
2019-03-29T14:39:48.242Z,15.50
2019-03-29T14:42:19.192Z,15.40
2019-03-29T14:44:52.670Z,15.20
2019-03-29T14:47:22.676Z,15.20
2019-03-29T14:49:53.567Z,15.20
2019-03-29T14:52:24.527Z,15.30
2019-03-29T14:54:55.470Z,15.40
2019-03-29T14:57:26.375Z,15.60
2019-03-29T14:59:57.306Z,15.40
2019-03-29T15:02:28.264Z,15.50
2019-03-29T15:04:59.281Z,15.60
2019-03-29T15:07:30.238Z,15.50
2019-03-29T15:10:01.660Z,15.50
2019-03-29T15:12:32.571Z,15.60
2019-03-29T15:15:06.342Z,15.70
2019-03-29T15:17:36.142Z,15.60
2019-03-29T15:20:07.326Z,15.40
2019-03-29T15:22:38.222Z,15.30
2019-03-29T15:25:09.146Z,15.30
2019-03-29T15:27:40.135Z,15.20
2019-03-29T15:30:11.251Z,14.90
2019-03-29T15:32:42.164Z,14.80
2019-03-29T15:35:13.239Z,14.80
2019-03-29T15:37:44.120Z,14.80
2019-03-29T15:40:15.020Z,14.70
2019-03-29T15:42:45.993Z,14.70
2019-03-29T15:45:20.717Z,14.60
2019-03-29T15:47:49.608Z,14.40
2019-03-29T15:50:20.465Z,14.40
2019-03-29T15:52:51.384Z,14.40
2019-03-29T15:55:22.270Z,14.40
2019-03-29T15:57:53.112Z,14.30
2019-03-29T16:00:24.018Z,14.30
2019-03-29T16:02:54.931Z,14.20
2019-03-29T16:05:25.962Z,14.10
2019-03-29T16:07:56.846Z,13.90
2019-03-29T16:10:27.800Z,13.80
2019-03-29T16:12:58.683Z,13.80
2019-03-29T16:15:36.375Z,13.70
2019-03-29T16:18:03.096Z,13.50
2019-03-29T16:20:34.002Z,13.40
2019-03-29T16:25:35.758Z,13.30
2019-03-29T16:28:06.701Z,13.20
2019-03-29T16:30:37.716Z,13.10
2019-03-29T16:33:08.683Z,13.00
2019-03-29T16:35:39.739Z,12.90
2019-03-29T16:38:10.640Z,12.70
2019-03-29T16:40:41.531Z,12.60
2019-03-29T16:43:12.502Z,12.40
2019-03-29T16:45:48.160Z,12.30
2019-03-29T16:48:16.024Z,12.20
2019-03-29T16:50:46.994Z,12.20
2019-03-29T16:53:17.885Z,12.20
2019-03-29T16:55:48.892Z,12.20
2019-03-29T16:58:19.771Z,12.20
2019-03-29T17:00:50.663Z,12.20
2019-03-29T17:03:21.577Z,12.10
2019-03-29T17:05:52.464Z,12.10
2019-03-29T17:08:23.335Z,12.20
2019-03-29T17:10:54.223Z,12.10
2019-03-29T17:13:25.277Z,12.10
2019-03-29T17:16:01.962Z,12.10
2019-03-29T17:18:29.673Z,12.10
2019-03-29T17:21:00.790Z,12.00
2019-03-29T17:23:32.210Z,12.00
2019-03-29T17:26:03.193Z,12.00
2019-03-29T17:28:34.095Z,11.80
2019-03-29T17:31:05.978Z,11.60
2019-03-29T17:33:36.883Z,11.50
2019-03-29T17:36:07.811Z,11.30
2019-03-29T17:38:38.760Z,11.30
2019-03-29T17:41:09.639Z,11.10
2019-03-29T17:43:40.554Z,11.00
2019-03-29T17:46:16.763Z,11.00
2019-03-29T17:48:43.979Z,11.00
2019-03-29T17:51:14.877Z,11.10
2019-03-29T17:53:45.801Z,11.20
2019-03-29T17:56:16.756Z,11.30
2019-03-29T17:58:47.653Z,11.50
2019-03-29T18:01:18.536Z,11.50
2019-03-29T18:03:49.439Z,11.50
2019-03-29T18:06:20.351Z,11.60
2019-03-29T18:08:51.231Z,11.50
2019-03-29T18:11:22.142Z,11.50
2019-03-29T18:13:53.057Z,11.60
2019-03-29T18:16:30.420Z,11.50
2019-03-29T18:18:56.399Z,11.40
2019-03-29T18:21:27.427Z,11.30
2019-03-29T18:23:58.328Z,11.00
2019-03-29T18:26:29.372Z,10.80
2019-03-29T18:29:00.274Z,10.60
2019-03-29T18:31:31.687Z,10.40
2019-03-29T18:34:02.827Z,10.30
2019-03-29T18:36:34.249Z,10.20
2019-03-29T18:39:06.394Z,10.20
2019-03-29T18:41:37.342Z,10.10
2019-03-29T18:44:08.219Z,10.10
2019-03-29T18:46:44.750Z,10.00
2019-03-29T18:49:11.657Z,9.90
2019-03-29T18:51:42.563Z,9.80
2019-03-29T18:54:13.482Z,9.80
2019-03-29T18:56:44.369Z,9.70
2019-03-29T18:59:15.304Z,9.70
2019-03-29T19:01:46.209Z,9.60
2019-03-29T19:04:17.254Z,9.60
2019-03-29T19:06:48.246Z,9.50
2019-03-29T19:09:19.067Z,9.50
2019-03-29T19:11:49.975Z,9.40
2019-03-29T19:14:20.874Z,9.30
2019-03-29T19:16:58.762Z,9.30
2019-03-29T19:19:24.357Z,9.30
2019-03-29T19:21:55.244Z,9.20
2019-03-29T19:24:26.170Z,9.20
2019-03-29T19:26:57.590Z,9.20
2019-03-29T19:29:28.501Z,9.30
2019-03-29T19:31:59.512Z,9.30
2019-03-29T19:34:30.438Z,9.40
2019-03-29T19:37:01.779Z,9.50
2019-03-29T19:39:35.787Z,9.70
2019-03-29T19:42:06.698Z,9.80
2019-03-29T19:44:37.570Z,9.90
2019-03-29T19:47:13.577Z,10.10
2019-03-29T19:49:41.090Z,10.20
2019-03-29T19:52:11.996Z,10.30
2019-03-29T19:54:43.164Z,10.30
2019-03-29T19:57:14.066Z,10.40
2019-03-29T19:59:47.981Z,10.50
2019-03-29T20:02:17.504Z,10.50
2019-03-29T20:04:48.443Z,10.50
2019-03-29T20:07:20.420Z,10.50
2019-03-29T20:09:51.460Z,10.60
2019-03-29T20:12:24.943Z,10.60
2019-03-29T20:14:55.102Z,10.70
2019-03-29T20:17:27.755Z,10.70
2019-03-29T20:19:58.513Z,10.70
2019-03-29T20:22:29.445Z,10.70
2019-03-29T20:25:00.326Z,10.70
2019-03-29T20:27:31.328Z,10.70
2019-03-29T20:30:02.144Z,10.70
2019-03-29T20:32:33.055Z,10.60
2019-03-29T20:35:03.981Z,10.60
2019-03-29T20:37:34.926Z,10.60
2019-03-29T20:40:06.502Z,10.70
2019-03-29T20:42:37.426Z,10.70
2019-03-29T20:45:08.552Z,10.70
2019-03-29T20:47:42.472Z,10.70
2019-03-29T20:50:12.710Z,10.70
2019-03-29T20:52:43.589Z,10.60
2019-03-29T20:55:15.499Z,10.60
2019-03-29T20:57:46.408Z,10.10
2019-03-29T21:00:21.049Z,10.60
2019-03-29T21:02:52.066Z,10.60
2019-03-29T21:05:22.955Z,10.60
2019-03-29T21:07:55.055Z,10.60
2019-03-29T21:10:26.359Z,10.50
2019-03-29T21:12:57.306Z,10.50
2019-03-29T21:15:28.199Z,10.60
2019-03-29T21:17:59.095Z,10.50
2019-03-29T21:20:29.985Z,10.50
2019-03-29T21:23:01.035Z,10.60
2019-03-29T21:25:32.257Z,10.60
2019-03-29T21:28:03.183Z,10.60
2019-03-29T21:30:34.221Z,10.50
2019-03-29T21:33:05.055Z,10.50
2019-03-29T21:35:36.610Z,10.50
2019-03-29T21:38:07.683Z,10.50
2019-03-29T21:40:38.810Z,10.50
2019-03-29T21:43:09.961Z,10.50
2019-03-29T21:45:41.351Z,10.50
2019-03-29T21:48:27.877Z,10.50
2019-03-29T21:50:44.776Z,10.50
2019-03-29T21:53:15.646Z,10.50
2019-03-29T21:55:46.581Z,10.50
2019-03-29T21:58:17.560Z,10.50
2019-03-29T22:00:48.484Z,10.50
2019-03-29T22:03:19.400Z,10.30
2019-03-29T22:05:50.307Z,10.40
2019-03-29T22:08:21.227Z,10.30
2019-03-29T22:10:52.098Z,10.30
2019-03-29T22:13:22.926Z,10.20
2019-03-29T22:15:53.924Z,10.20
2019-03-29T22:18:37.280Z,10.30
2019-03-29T22:20:57.549Z,10.20
2019-03-29T22:23:28.480Z,10.20
2019-03-29T22:25:59.372Z,10.20
2019-03-29T22:28:30.386Z,10.10
2019-03-29T22:31:01.334Z,10.10
2019-03-29T22:33:32.216Z,10.20
2019-03-29T22:36:03.131Z,10.10
2019-03-29T22:38:34.036Z,10.00
2019-03-29T22:41:05.078Z,10.00
2019-03-29T22:43:35.995Z,10.00
2019-03-29T22:46:06.889Z,9.90
2019-03-29T22:48:51.275Z,9.90
2019-03-29T22:51:10.313Z,9.90
2019-03-29T22:53:41.310Z,9.90
2019-03-29T22:56:12.159Z,9.90
2019-03-29T22:58:43.066Z,9.80
2019-03-29T23:01:14.255Z,9.80
2019-03-29T23:03:45.536Z,9.80
2019-03-29T23:06:16.475Z,9.80
2019-03-29T23:08:47.441Z,9.80
2019-03-29T23:11:19.136Z,9.70
2019-03-29T23:13:50.113Z,9.70
2019-03-29T23:16:21.014Z,9.70
2019-03-29T23:19:05.582Z,9.60
2019-03-29T23:21:24.491Z,9.60
2019-03-29T23:23:55.401Z,9.60
2019-03-29T23:26:26.274Z,9.50
2019-03-29T23:28:57.167Z,9.50
2019-03-29T23:31:28.090Z,9.50
2019-03-29T23:33:59.071Z,9.60
2019-03-29T23:36:30.066Z,9.50
2019-03-29T23:39:01.067Z,9.50
2019-03-29T23:41:32.011Z,9.50
2019-03-29T23:44:02.922Z,9.50
2019-03-29T23:46:33.834Z,9.50
2019-03-29T23:49:04.741Z,9.50
2019-03-29T23:51:35.562Z,9.40
2019-03-29T23:54:06.495Z,9.30
2019-03-29T23:56:37.438Z,9.30
2019-03-29T23:59:08.411Z,9.30
